createdAt,value
2019-03-21T00:02:18.932Z,8.90
2019-03-21T00:05:00.360Z,8.90
2019-03-21T00:07:31.072Z,8.90
2019-03-21T00:10:39.032Z,8.90
2019-03-21T00:13:28.135Z,8.90
2019-03-21T00:16:17.042Z,8.80
2019-03-21T00:22:20.087Z,8.70
2019-03-21T00:24:56.680Z,8.80
2019-03-21T00:30:55.117Z,8.70
2019-03-21T00:37:05.676Z,8.70
2019-03-21T00:39:44.713Z,8.70
2019-03-21T00:42:33.752Z,8.70
2019-03-21T00:48:30.781Z,8.60
2019-03-21T00:57:28.839Z,8.60
2019-03-21T01:00:19.372Z,8.60
2019-03-21T01:03:00.129Z,8.60
2019-03-21T01:05:41.450Z,8.60
2019-03-21T01:08:22.569Z,8.50
2019-03-21T01:11:03.531Z,8.50
2019-03-21T01:13:44.933Z,8.60
2019-03-21T01:16:26.460Z,8.60
2019-03-21T01:21:47.282Z,8.50
2019-03-21T01:24:28.628Z,8.50
2019-03-21T01:27:10.392Z,8.50
2019-03-21T01:29:51.758Z,8.50
2019-03-21T01:32:32.756Z,8.50
2019-03-21T01:35:14.065Z,8.50
2019-03-21T01:37:55.601Z,8.50
2019-03-21T01:40:37.142Z,8.50
2019-03-21T01:43:18.896Z,8.40
2019-03-21T01:46:00.203Z,8.40
2019-03-21T01:48:41.944Z,8.40
2019-03-21T01:51:23.426Z,8.40
2019-03-21T01:53:54.894Z,8.40
2019-03-21T01:59:53.342Z,8.40
2019-03-21T02:02:54.008Z,8.30
2019-03-21T02:05:25.593Z,8.30
2019-03-21T02:08:07.191Z,8.40
2019-03-21T02:10:48.180Z,8.20
2019-03-21T02:13:29.562Z,8.20
2019-03-21T02:16:11.225Z,8.20
2019-03-21T02:18:52.776Z,8.20
2019-03-21T02:22:02.333Z,8.20
2019-03-21T02:31:00.366Z,8.20
2019-03-21T02:33:49.365Z,8.20
2019-03-21T02:36:38.292Z,8.20
2019-03-21T02:42:26.746Z,8.20
2019-03-21T02:45:16.136Z,8.10
2019-03-21T02:48:05.019Z,8.20
2019-03-21T02:50:54.111Z,8.20
2019-03-21T03:03:50.669Z,8.00
2019-03-21T03:06:19.546Z,8.00
2019-03-21T03:08:50.551Z,8.00
2019-03-21T03:17:07.695Z,8.00
2019-03-21T03:19:49.301Z,7.90
2019-03-21T03:22:30.819Z,7.90
2019-03-21T03:25:12.348Z,7.90
2019-03-21T03:30:43.947Z,7.90
2019-03-21T03:33:33.736Z,7.90
2019-03-21T03:36:22.712Z,7.90
2019-03-21T03:39:11.712Z,7.80
2019-03-21T03:42:21.277Z,7.90
2019-03-21T03:54:41.964Z,7.80
2019-03-21T04:03:41.515Z,7.70
2019-03-21T04:06:30.584Z,7.80
2019-03-21T04:12:03.831Z,7.70
2019-03-21T04:14:52.842Z,7.70
2019-03-21T04:17:24.100Z,7.70
2019-03-21T04:20:13.986Z,7.70
2019-03-21T04:23:03.153Z,7.70
2019-03-21T04:25:40.231Z,7.70
2019-03-21T04:28:14.767Z,7.70
2019-03-21T04:30:45.735Z,7.70
2019-03-21T04:33:36.408Z,7.70
2019-03-21T04:36:25.410Z,7.70
2019-03-21T04:39:14.369Z,7.70
2019-03-21T04:41:45.094Z,7.60
2019-03-21T04:47:34.992Z,7.60
2019-03-21T04:50:24.838Z,7.50
2019-03-21T04:52:55.222Z,7.50
2019-03-21T04:55:44.198Z,7.50
2019-03-21T04:58:14.436Z,7.50
2019-03-21T05:01:03.478Z,7.50
2019-03-21T05:03:52.413Z,7.50
2019-03-21T05:06:41.389Z,7.50
2019-03-21T05:09:22.687Z,7.40
2019-03-21T05:12:04.433Z,7.40
2019-03-21T05:17:42.673Z,7.40
2019-03-21T05:20:35.752Z,7.40
2019-03-21T05:23:24.667Z,7.40
2019-03-21T05:26:13.609Z,7.40
2019-03-21T05:29:02.720Z,7.40
2019-03-21T05:31:51.738Z,7.40
2019-03-21T05:34:40.919Z,7.50
2019-03-21T05:40:20.804Z,7.50
2019-03-21T05:43:11.204Z,7.50
2019-03-21T05:45:41.862Z,7.50
2019-03-21T05:48:30.826Z,7.50
2019-03-21T05:51:19.910Z,7.60
2019-03-21T05:54:08.891Z,7.60
2019-03-21T05:56:57.893Z,7.60
2019-03-21T05:59:39.887Z,7.60
2019-03-21T06:02:18.759Z,7.60
2019-03-21T06:05:07.932Z,7.60
2019-03-21T06:08:15.577Z,7.60
2019-03-21T06:10:56.518Z,7.60
2019-03-21T06:13:27.139Z,7.60
2019-03-21T06:16:16.312Z,7.60
2019-03-21T06:19:16.407Z,7.70
2019-03-21T06:22:07.811Z,7.70
2019-03-21T06:25:18.364Z,7.70
2019-03-21T06:27:48.675Z,7.70
2019-03-21T06:30:19.336Z,7.80
2019-03-21T06:35:30.659Z,7.90
2019-03-21T06:38:01.057Z,7.90
2019-03-21T06:40:31.470Z,7.90
2019-03-21T06:43:20.442Z,8.00
2019-03-21T06:45:50.818Z,8.00
2019-03-21T06:48:39.948Z,8.10
2019-03-21T06:51:10.539Z,8.10
2019-03-21T06:53:41.312Z,8.20
2019-03-21T06:56:11.661Z,8.30
2019-03-21T06:58:42.124Z,8.40
2019-03-21T07:01:13.781Z,8.40
2019-03-21T07:03:44.179Z,8.50
2019-03-21T07:08:48.446Z,8.60
2019-03-21T07:11:19.591Z,8.70
2019-03-21T07:13:50.153Z,8.70
2019-03-21T07:16:20.619Z,8.80
2019-03-21T07:18:51.099Z,8.90
2019-03-21T07:21:22.779Z,8.90
2019-03-21T07:23:53.120Z,8.90
2019-03-21T07:26:23.407Z,9.00
2019-03-21T07:28:54.601Z,9.10
2019-03-21T07:31:24.973Z,9.10
2019-03-21T07:33:55.243Z,9.20
2019-03-21T07:36:26.343Z,9.30
2019-03-21T07:38:56.743Z,9.40
2019-03-21T07:41:27.013Z,9.40
2019-03-21T07:43:57.681Z,9.50
2019-03-21T07:46:46.667Z,9.50
2019-03-21T07:49:17.216Z,9.60
2019-03-21T07:52:26.474Z,9.70
2019-03-21T07:54:57.305Z,9.80
2019-03-21T07:57:27.622Z,9.90
2019-03-21T07:59:58.070Z,10.00
2019-03-21T08:02:28.653Z,10.10
2019-03-21T08:04:59.107Z,10.20
2019-03-21T08:07:29.895Z,10.30
2019-03-21T08:10:00.678Z,10.40
2019-03-21T08:12:31.047Z,10.50
2019-03-21T08:15:01.505Z,10.60
2019-03-21T08:17:32.158Z,10.70
2019-03-21T08:20:02.412Z,10.80
2019-03-21T08:22:44.567Z,10.90
2019-03-21T08:25:04.924Z,11.00
2019-03-21T08:27:35.227Z,11.10
2019-03-21T08:30:07.080Z,11.20
2019-03-21T08:32:37.719Z,11.30
2019-03-21T08:35:08.759Z,11.40
2019-03-21T08:37:39.074Z,11.50
2019-03-21T08:40:29.791Z,11.60
2019-03-21T08:46:21.747Z,11.90
2019-03-21T08:48:52.354Z,11.80
2019-03-21T08:51:22.722Z,12.00
2019-03-21T08:53:53.083Z,12.10
2019-03-21T08:56:23.666Z,12.30
2019-03-21T08:58:53.961Z,12.40
2019-03-21T09:01:24.278Z,12.60
2019-03-21T09:03:54.806Z,12.80
2019-03-21T09:06:25.151Z,13.10
2019-03-21T09:08:55.757Z,13.40
2019-03-21T09:11:26.364Z,13.80
2019-03-21T09:13:57.487Z,14.30
2019-03-21T09:16:27.785Z,14.80
2019-03-21T09:21:47.562Z,15.80
2019-03-21T09:26:40.858Z,16.10
2019-03-21T09:29:11.164Z,16.70
2019-03-21T09:31:42.946Z,17.10
2019-03-21T09:34:13.317Z,17.40
2019-03-21T09:36:43.769Z,17.50
2019-03-21T09:39:14.338Z,17.80
2019-03-21T09:41:44.727Z,17.90
2019-03-21T09:44:14.001Z,18.20
2019-03-21T09:46:50.764Z,18.30
2019-03-21T09:49:36.279Z,18.40
2019-03-21T09:52:25.273Z,18.60
2019-03-21T09:54:55.528Z,18.80
2019-03-21T09:59:51.844Z,18.80
2019-03-21T10:02:22.161Z,19.20
2019-03-21T10:04:52.743Z,19.30
2019-03-21T10:07:23.005Z,19.50
2019-03-21T10:09:53.343Z,19.60
2019-03-21T10:12:23.657Z,19.90
2019-03-21T10:14:54.273Z,20.10
2019-03-21T10:17:25.216Z,20.20
2019-03-21T10:19:55.535Z,20.30
2019-03-21T10:22:26.163Z,20.30
2019-03-21T10:24:56.464Z,20.30
2019-03-21T10:27:27.146Z,20.30
2019-03-21T10:33:38.771Z,20.60
2019-03-21T10:36:11.509Z,20.80
2019-03-21T10:38:42.215Z,21.00
2019-03-21T10:41:12.533Z,21.20
2019-03-21T10:43:42.903Z,21.30
2019-03-21T10:46:13.546Z,21.50
2019-03-21T10:48:43.854Z,21.60
2019-03-21T10:51:14.440Z,21.70
2019-03-21T10:53:45.612Z,21.70
2019-03-21T10:56:15.885Z,21.90
2019-03-21T10:58:46.319Z,22.00
2019-03-21T11:01:17.283Z,22.10
2019-03-21T11:03:47.579Z,22.10
2019-03-21T11:06:17.921Z,22.30
2019-03-21T11:08:48.752Z,22.50
2019-03-21T11:11:19.089Z,22.60
2019-03-21T11:14:08.368Z,22.50
2019-03-21T11:16:38.814Z,22.70
2019-03-21T11:19:10.747Z,22.40
2019-03-21T11:21:41.107Z,22.30
2019-03-21T11:24:11.578Z,22.30
2019-03-21T11:26:41.866Z,22.40
2019-03-21T11:29:12.307Z,22.20
2019-03-21T11:31:42.996Z,22.40
2019-03-21T11:34:32.161Z,22.50
2019-03-21T11:37:16.597Z,22.20
2019-03-21T11:39:34.852Z,22.10
2019-03-21T11:42:26.656Z,21.90
2019-03-21T11:45:00.077Z,21.80
2019-03-21T11:47:41.402Z,21.60
2019-03-21T11:50:02.562Z,21.70
2019-03-21T11:52:33.201Z,21.90
2019-03-21T11:55:03.426Z,22.00
2019-03-21T11:57:33.833Z,21.70
2019-03-21T12:00:05.548Z,21.70
2019-03-21T12:02:35.961Z,21.70
2019-03-21T12:05:06.662Z,21.80
2019-03-21T12:07:37.384Z,21.90
2019-03-21T12:10:10.742Z,22.10
2019-03-21T12:12:41.521Z,22.20
2019-03-21T12:15:12.229Z,22.10
2019-03-21T12:17:42.713Z,22.10
2019-03-21T12:20:13.322Z,21.90
2019-03-21T12:22:43.925Z,21.80
2019-03-21T12:25:14.409Z,21.60
2019-03-21T12:27:44.754Z,21.50
2019-03-21T12:32:47.442Z,21.20
2019-03-21T12:35:17.671Z,21.40
2019-03-21T12:37:48.298Z,21.30
2019-03-21T12:40:18.585Z,21.20
2019-03-21T12:42:49.021Z,21.40
2019-03-21T12:45:19.631Z,21.40
2019-03-21T12:47:50.058Z,21.40
2019-03-21T12:50:20.439Z,21.50
2019-03-21T12:52:51.343Z,21.50
2019-03-21T12:55:21.765Z,21.40
2019-03-21T12:57:52.433Z,21.40
2019-03-21T13:00:42.306Z,21.50
2019-03-21T13:03:13.321Z,21.60
2019-03-21T13:05:44.229Z,21.60
2019-03-21T13:08:14.526Z,21.60
2019-03-21T13:10:44.754Z,21.70
2019-03-21T13:13:15.540Z,21.60
2019-03-21T13:15:46.008Z,21.70
2019-03-21T13:18:17.186Z,21.70
2019-03-21T13:20:47.877Z,21.70
2019-03-21T13:23:18.174Z,21.90
2019-03-21T13:25:48.901Z,21.70
2019-03-21T13:28:20.539Z,21.70
2019-03-21T13:30:50.909Z,21.70
2019-03-21T13:33:21.418Z,21.70
2019-03-21T13:35:51.993Z,21.40
2019-03-21T13:38:22.514Z,21.70
2019-03-21T13:40:52.813Z,21.70
2019-03-21T13:43:23.400Z,21.70
2019-03-21T13:45:53.689Z,21.80
2019-03-21T13:48:24.014Z,21.80
2019-03-21T13:50:54.608Z,21.90
2019-03-21T13:53:24.972Z,21.80
2019-03-21T13:55:55.294Z,21.80
2019-03-21T13:58:25.561Z,21.90
2019-03-21T14:01:15.352Z,21.90
2019-03-21T14:03:45.686Z,21.90
2019-03-21T14:06:16.390Z,21.80
2019-03-21T14:08:46.700Z,21.70
2019-03-21T14:11:19.269Z,21.70
2019-03-21T14:13:49.293Z,21.80
2019-03-21T14:16:38.330Z,21.80
2019-03-21T14:19:09.418Z,21.70
2019-03-21T14:21:39.758Z,21.80
2019-03-21T14:24:28.905Z,21.80
2019-03-21T14:26:59.291Z,21.60
2019-03-21T14:29:30.001Z,21.50
2019-03-21T14:32:00.311Z,21.30
2019-03-21T14:34:30.679Z,21.40
2019-03-21T14:37:01.397Z,21.40
2019-03-21T14:39:31.744Z,21.40
2019-03-21T14:42:02.305Z,21.50
2019-03-21T14:44:32.977Z,21.40
2019-03-21T14:47:03.413Z,21.50
2019-03-21T14:49:33.778Z,21.30
2019-03-21T14:52:04.439Z,21.00
2019-03-21T14:54:34.813Z,20.80
2019-03-21T14:57:05.214Z,20.70
2019-03-21T14:59:36.008Z,20.60
2019-03-21T15:02:06.574Z,20.60
2019-03-21T15:04:36.933Z,20.50
2019-03-21T15:07:26.040Z,20.40
2019-03-21T15:09:56.377Z,20.30
2019-03-21T15:12:29.624Z,20.20
2019-03-21T15:14:59.086Z,20.10
2019-03-21T15:17:48.094Z,20.10
2019-03-21T15:20:18.680Z,19.90
2019-03-21T15:22:49.388Z,19.90
2019-03-21T15:25:19.779Z,19.90
2019-03-21T15:27:50.100Z,19.80
2019-03-21T15:30:21.583Z,19.80
2019-03-21T15:32:51.912Z,19.60
2019-03-21T15:35:22.431Z,19.60
2019-03-21T15:37:56.407Z,19.40
2019-03-21T15:40:26.824Z,19.50
2019-03-21T15:42:57.352Z,19.30
2019-03-21T15:45:27.679Z,19.20
2019-03-21T15:47:58.022Z,19.20
2019-03-21T15:50:47.077Z,19.20
2019-03-21T15:59:25.236Z,18.90
2019-03-21T16:01:55.870Z,18.70
2019-03-21T16:04:26.195Z,18.60
2019-03-21T16:06:56.594Z,18.50
2019-03-21T16:09:27.285Z,18.50
2019-03-21T16:11:57.919Z,18.50
2019-03-21T16:14:49.231Z,18.40
2019-03-21T16:17:19.070Z,18.40
2019-03-21T16:19:49.700Z,18.30
2019-03-21T16:22:20.094Z,18.10
2019-03-21T16:24:50.435Z,18.10
2019-03-21T16:27:21.405Z,18.00
2019-03-21T16:29:51.713Z,18.00
2019-03-21T16:32:22.246Z,17.90
2019-03-21T16:38:32.742Z,17.70
2019-03-21T16:41:22.103Z,17.70
2019-03-21T16:43:52.544Z,17.60
2019-03-21T16:46:23.079Z,17.50
2019-03-21T16:48:53.460Z,17.30
2019-03-21T16:51:42.527Z,17.30
2019-03-21T16:54:17.342Z,17.40
2019-03-21T16:57:03.762Z,17.30
2019-03-21T16:59:52.843Z,17.10
2019-03-21T17:17:42.040Z,16.90
2019-03-21T17:23:28.511Z,16.80
2019-03-21T17:26:07.641Z,16.70
2019-03-21T17:28:49.096Z,16.60
2019-03-21T17:31:30.443Z,16.50
2019-03-21T17:34:12.010Z,16.40
2019-03-21T17:36:53.266Z,16.30
2019-03-21T17:39:34.805Z,16.20
2019-03-21T17:42:16.185Z,16.10
2019-03-21T17:44:58.922Z,16.00
2019-03-21T17:47:40.819Z,15.80
2019-03-21T17:50:22.528Z,15.80
2019-03-21T17:53:03.953Z,15.70
2019-03-21T17:55:45.251Z,15.60
2019-03-21T17:58:28.771Z,15.60
2019-03-21T18:01:09.593Z,15.50
2019-03-21T18:03:50.789Z,15.40
2019-03-21T18:09:14.480Z,15.40
2019-03-21T18:11:56.017Z,15.30
2019-03-21T18:14:37.920Z,15.30
2019-03-21T18:17:19.378Z,15.20
2019-03-21T18:20:01.011Z,15.20
2019-03-21T18:22:45.522Z,15.10
2019-03-21T18:28:24.514Z,15.10
2019-03-21T18:31:06.094Z,15.00
2019-03-21T18:33:47.277Z,14.90
2019-03-21T18:36:28.462Z,14.80
2019-03-21T18:38:59.994Z,14.80
2019-03-21T18:41:31.188Z,14.70
2019-03-21T18:44:01.707Z,14.60
2019-03-21T18:46:32.411Z,14.60
2019-03-21T18:49:21.611Z,14.60
2019-03-21T18:52:10.765Z,14.50
2019-03-21T18:55:06.390Z,14.50
2019-03-21T18:57:50.505Z,14.40
2019-03-21T19:03:24.334Z,14.30
2019-03-21T19:05:54.757Z,14.30
2019-03-21T19:08:25.159Z,14.20
2019-03-21T19:10:55.528Z,14.20
2019-03-21T19:13:26.279Z,14.20
2019-03-21T19:15:56.774Z,14.20
2019-03-21T19:18:27.481Z,14.10
2019-03-21T19:20:57.859Z,14.10
2019-03-21T19:23:28.818Z,14.00
2019-03-21T19:25:59.708Z,14.00
2019-03-21T19:28:30.232Z,14.00
2019-03-21T19:31:00.559Z,13.90
2019-03-21T19:33:31.500Z,13.90
2019-03-21T19:36:01.982Z,13.80
2019-03-21T19:38:32.363Z,13.70
2019-03-21T19:41:03.048Z,13.70
2019-03-21T19:43:33.763Z,13.70
2019-03-21T19:46:04.126Z,13.60
2019-03-21T19:48:34.806Z,13.60
2019-03-21T19:51:05.261Z,13.60
2019-03-21T19:53:35.845Z,13.50
2019-03-21T19:56:08.699Z,13.50
2019-03-21T19:58:39.128Z,13.50
2019-03-21T20:01:09.592Z,13.40
2019-03-21T20:03:41.595Z,13.40
2019-03-21T20:06:12.345Z,13.30
2019-03-21T20:08:42.780Z,13.30
2019-03-21T20:11:13.526Z,13.20
2019-03-21T20:13:43.944Z,13.20
2019-03-21T20:16:14.462Z,13.20
2019-03-21T20:18:46.898Z,13.10
2019-03-21T20:21:17.235Z,13.00
2019-03-21T20:23:47.662Z,13.10
2019-03-21T20:26:18.364Z,13.00
2019-03-21T20:28:48.799Z,13.10
2019-03-21T20:31:19.169Z,13.00
2019-03-21T20:33:50.278Z,13.00
2019-03-21T20:36:20.848Z,12.90
2019-03-21T20:38:51.526Z,12.90
2019-03-21T20:41:22.304Z,13.00
2019-03-21T20:43:52.755Z,12.90
2019-03-21T20:46:23.209Z,12.90
2019-03-21T20:48:52.548Z,12.90
2019-03-21T20:51:23.023Z,12.80
2019-03-21T20:53:55.094Z,12.80
2019-03-21T20:56:26.199Z,12.80
2019-03-21T20:58:56.637Z,12.80
2019-03-21T21:01:27.249Z,12.80
2019-03-21T21:03:57.782Z,12.70
2019-03-21T21:06:30.029Z,12.60
2019-03-21T21:09:01.085Z,12.60
2019-03-21T21:11:31.523Z,12.60
2019-03-21T21:14:01.869Z,12.50
2019-03-21T21:16:34.838Z,12.50
2019-03-21T21:19:05.322Z,12.50
2019-03-21T21:21:35.882Z,12.40
2019-03-21T21:24:06.868Z,12.40
2019-03-21T21:26:37.245Z,12.30
2019-03-21T21:29:07.610Z,12.30
2019-03-21T21:31:38.538Z,12.30
2019-03-21T21:34:08.858Z,12.30
2019-03-21T21:36:41.946Z,12.30
2019-03-21T21:39:13.710Z,12.30
2019-03-21T21:41:44.432Z,12.20
2019-03-21T21:44:14.888Z,12.20
2019-03-21T21:46:45.297Z,12.10
2019-03-21T21:49:16.006Z,12.00
2019-03-21T21:51:46.506Z,11.90
2019-03-21T21:54:16.956Z,11.90
2019-03-21T21:56:47.668Z,11.90
2019-03-21T21:59:18.174Z,11.90
2019-03-21T22:01:48.568Z,11.90
2019-03-21T22:04:18.953Z,11.90
2019-03-21T22:06:49.313Z,11.80
2019-03-21T22:09:20.178Z,11.90
2019-03-21T22:11:50.513Z,11.90
2019-03-21T22:14:20.854Z,11.80
2019-03-21T22:16:51.727Z,11.80
2019-03-21T22:19:22.059Z,11.80
2019-03-21T22:21:52.464Z,11.70
2019-03-21T22:24:23.231Z,11.70
2019-03-21T22:26:53.632Z,11.70
2019-03-21T22:29:23.938Z,11.60
2019-03-21T22:34:44.381Z,11.70
2019-03-21T22:37:33.872Z,11.60
2019-03-21T22:40:04.950Z,11.60
2019-03-21T22:42:35.563Z,11.60
2019-03-21T22:45:08.410Z,11.60
2019-03-21T22:47:38.818Z,11.60
2019-03-21T22:50:11.167Z,11.50
2019-03-21T22:52:41.708Z,11.50
2019-03-21T22:55:12.393Z,11.40
2019-03-21T22:57:43.094Z,11.40
2019-03-21T23:00:16.096Z,11.30
2019-03-21T23:02:46.584Z,11.30
2019-03-21T23:05:21.469Z,11.30
2019-03-21T23:07:51.761Z,11.20
2019-03-21T23:13:42.700Z,11.20
2019-03-21T23:22:22.869Z,11.10
2019-03-21T23:24:53.213Z,11.10
2019-03-21T23:27:23.582Z,11.00
2019-03-21T23:36:14.856Z,10.90
2019-03-21T23:38:56.219Z,10.90
2019-03-21T23:41:37.796Z,10.90
2019-03-21T23:44:19.234Z,10.90
2019-03-21T23:47:00.813Z,10.80
2019-03-21T23:49:42.389Z,10.80
2019-03-21T23:52:23.919Z,10.80
2019-03-21T23:55:05.456Z,10.70
2019-03-21T23:57:45.739Z,10.70
